sensor_id;sensor_type;location;lat;lon;timestamp;temperature;humidity
6333;DHT22;3199;49.102;8.856;2023-01-01T00:02:08;12.20;99.90
6333;DHT22;3199;49.102;8.856;2023-01-01T00:04:34;12.20;99.90
6333;DHT22;3199;49.102;8.856;2023-01-01T00:07:00;12.20;99.90
6333;DHT22;3199;49.102;8.856;2023-01-01T00:09:25;12.20;99.90
6333;DHT22;3199;49.102;8.856;2023-01-01T00:12:10;12.30;99.90
6333;DHT22;3199;49.102;8.856;2023-01-01T00:14:36;12.40;99.90
6333;DHT22;3199;49.102;8.856;2023-01-01T00:17:03;12.60;99.90
6333;DHT22;3199;49.102;8.856;2023-01-01T00:19:29;12.60;99.90
6333;DHT22;3199;49.102;8.856;2023-01-01T00:21:54;12.60;99.90
6333;DHT22;3199;49.102;8.856;2023-01-01T00:24:20;12.60;99.90
6333;DHT22;3199;49.102;8.856;2023-01-01T00:26:45;12.70;99.90
6333;DHT22;3199;49.102;8.856;2023-01-01T00:29:11;12.60;99.90
6333;DHT22;3199;49.102;8.856;2023-01-01T00:31:37;12.60;99.90
6333;DHT22;3199;49.102;8.856;2023-01-01T00:34:02;12.60;99.90
6333;DHT22;3199;49.102;8.856;2023-01-01T00:36:28;12.60;99.90
6333;DHT22;3199;49.102;8.856;2023-01-01T00:38:54;12.60;99.90
6333;DHT22;3199;49.102;8.856;2023-01-01T00:41:21;12.70;99.90
6333;DHT22;3199;49.102;8.856;2023-01-01T00:43:46;12.70;99.90
6333;DHT22;3199;49.102;8.856;2023-01-01T00:46:12;12.70;99.90
6333;DHT22;3199;49.102;8.856;2023-01-01T00:48:38;12.60;99.90
6333;DHT22;3199;49.102;8.856;2023-01-01T00:51:04;12.60;99.90
6333;DHT22;3199;49.102;8.856;2023-01-01T00:53:29;12.50;99.90
6333;DHT22;3199;49.102;8.856;2023-01-01T00:55:55;12.50;99.90
6333;DHT22;3199;49.102;8.856;2023-01-01T00:58:22;12.40;99.90
6333;DHT22;3199;49.102;8.856;2023-01-01T01:00:49;12.40;99.90
6333;DHT22;3199;49.102;8.856;2023-01-01T01:03:14;12.40;99.90
6333;DHT22;3199;49.102;8.856;2023-01-01T01:08:35;12.50;99.90
6333;DHT22;3199;49.102;8.856;2023-01-01T01:11:15;12.70;99.90
6333;DHT22;3199;49.102;8.856;2023-01-01T01:13:42;12.80;99.90
6333;DHT22;3199;49.102;8.856;2023-01-01T01:16:19;12.80;99.90
6333;DHT22;3199;49.102;8.856;2023-01-01T01:18:45;12.90;99.90
6333;DHT22;3199;49.102;8.856;2023-01-01T01:21:15;13.00;99.90
6333;DHT22;3199;49.102;8.856;2023-01-01T01:23:41;13.00;99.90
6333;DHT22;3199;49.102;8.856;2023-01-01T01:26:14;13.00;99.90
6333;DHT22;3199;49.102;8.856;2023-01-01T01:28:40;13.00;99.90
6333;DHT22;3199;49.102;8.856;2023-01-01T01:31:06;13.00;99.90
6333;DHT22;3199;49.102;8.856;2023-01-01T01:33:32;13.00;99.90
6333;DHT22;3199;49.102;8.856;2023-01-01T01:35:57;12.90;99.90
6333;DHT22;3199;49.102;8.856;2023-01-01T01:38:23;12.90;99.90
6333;DHT22;3199;49.102;8.856;2023-01-01T01:40:48;12.80;99.90
6333;DHT22;3199;49.102;8.856;2023-01-01T01:43:44;12.80;99.90
6333;DHT22;3199;49.102;8.856;2023-01-01T01:49:08;12.60;99.90
6333;DHT22;3199;49.102;8.856;2023-01-01T01:51:39;12.50;99.90
6333;DHT22;3199;49.102;8.856;2023-01-01T01:54:13;12.40;99.90
6333;DHT22;3199;49.102;8.856;2023-01-01T01:56:48;12.30;99.90
6333;DHT22;3199;49.102;8.856;2023-01-01T01:59:16;12.30;99.90
6333;DHT22;3199;49.102;8.856;2023-01-01T02:01:43;12.30;99.90
6333;DHT22;3199;49.102;8.856;2023-01-01T02:04:09;12.30;99.90
6333;DHT22;3199;49.102;8.856;2023-01-01T02:06:35;12.30;99.90
6333;DHT22;3199;49.102;8.856;2023-01-01T02:09:04;12.30;99.90
6333;DHT22;3199;49.102;8.856;2023-01-01T02:11:30;12.30;99.90
6333;DHT22;3199;49.102;8.856;2023-01-01T02:13:56;12.30;99.90
6333;DHT22;3199;49.102;8.856;2023-01-01T02:16:40;12.30;99.90
6333;DHT22;3199;49.102;8.856;2023-01-01T02:22:15;12.30;99.90
6333;DHT22;3199;49.102;8.856;2023-01-01T02:30:01;12.20;99.90
6333;DHT22;3199;49.102;8.856;2023-01-01T02:32:50;12.10;99.90
6333;DHT22;3199;49.102;8.856;2023-01-01T02:35:23;12.10;99.90
6333;DHT22;3199;49.102;8.856;2023-01-01T02:40:39;11.90;99.90
6333;DHT22;3199;49.102;8.856;2023-01-01T02:43:06;11.90;99.90
6333;DHT22;3199;49.102;8.856;2023-01-01T02:45:32;11.90;99.90
6333;DHT22;3199;49.102;8.856;2023-01-01T02:48:02;11.80;99.90
6333;DHT22;3199;49.102;8.856;2023-01-01T02:50:28;11.80;99.90
6333;DHT22;3199;49.102;8.856;2023-01-01T02:53:11;11.70;99.90
6333;DHT22;3199;49.102;8.856;2023-01-01T02:56:07;11.70;99.90
6333;DHT22;3199;49.102;8.856;2023-01-01T02:58:46;11.60;99.90
6333;DHT22;3199;49.102;8.856;2023-01-01T03:01:48;11.60;99.90
6333;DHT22;3199;49.102;8.856;2023-01-01T03:06:50;11.60;99.90
6333;DHT22;3199;49.102;8.856;2023-01-01T03:09:42;11.60;99.90
6333;DHT22;3199;49.102;8.856;2023-01-01T03:12:26;11.60;99.90
6333;DHT22;3199;49.102;8.856;2023-01-01T03:15:09;11.60;99.90
6333;DHT22;3199;49.102;8.856;2023-01-01T03:17:45;11.50;99.90
6333;DHT22;3199;49.102;8.856;2023-01-01T03:20:18;11.50;99.90
6333;DHT22;3199;49.102;8.856;2023-01-01T03:22:47;11.50;99.90
6333;DHT22;3199;49.102;8.856;2023-01-01T03:25:18;11.50;99.90
6333;DHT22;3199;49.102;8.856;2023-01-01T03:27:49;11.40;99.90
6333;DHT22;3199;49.102;8.856;2023-01-01T03:30:18;11.40;99.90
6333;DHT22;3199;49.102;8.856;2023-01-01T03:32:51;11.40;99.90
6333;DHT22;3199;49.102;8.856;2023-01-01T03:35:49;11.40;99.90
6333;DHT22;3199;49.102;8.856;2023-01-01T03:38:23;11.30;99.90
6333;DHT22;3199;49.102;8.856;2023-01-01T03:40:53;11.30;99.90
6333;DHT22;3199;49.102;8.856;2023-01-01T03:43:29;11.30;99.90
6333;DHT22;3199;49.102;8.856;2023-01-01T03:45:58;11.20;99.90
6333;DHT22;3199;49.102;8.856;2023-01-01T03:48:25;11.10;99.90
6333;DHT22;3199;49.102;8.856;2023-01-01T03:51:07;11.10;99.90
6333;DHT22;3199;49.102;8.856;2023-01-01T03:53:42;11.10;99.90
6333;DHT22;3199;49.102;8.856;2023-01-01T03:56:16;11.10;99.90
6333;DHT22;3199;49.102;8.856;2023-01-01T03:58:54;11.20;99.90
6333;DHT22;3199;49.102;8.856;2023-01-01T04:01:26;11.20;99.90
6333;DHT22;3199;49.102;8.856;2023-01-01T04:03:55;11.20;99.90
6333;DHT22;3199;49.102;8.856;2023-01-01T04:06:21;11.20;99.90
6333;DHT22;3199;49.102;8.856;2023-01-01T04:08:48;11.30;99.90
6333;DHT22;3199;49.102;8.856;2023-01-01T04:11:20;11.30;99.90
6333;DHT22;3199;49.102;8.856;2023-01-01T04:14:13;11.40;99.90
6333;DHT22;3199;49.102;8.856;2023-01-01T04:16:38;11.40;99.90
6333;DHT22;3199;49.102;8.856;2023-01-01T04:19:04;11.40;99.90
6333;DHT22;3199;49.102;8.856;2023-01-01T04:21:31;11.30;99.90
6333;DHT22;3199;49.102;8.856;2023-01-01T04:23:57;11.30;99.90
6333;DHT22;3199;49.102;8.856;2023-01-01T04:26:22;11.30;99.90
6333;DHT22;3199;49.102;8.856;2023-01-01T04:28:48;11.30;99.90
6333;DHT22;3199;49.102;8.856;2023-01-01T04:31:13;11.30;99.90
6333;DHT22;3199;49.102;8.856;2023-01-01T04:33:39;11.30;99.90
6333;DHT22;3199;49.102;8.856;2023-01-01T04:36:09;11.30;99.90
6333;DHT22;3199;49.102;8.856;2023-01-01T04:38:35;11.30;99.90
6333;DHT22;3199;49.102;8.856;2023-01-01T04:41:02;11.20;99.90
6333;DHT22;3199;49.102;8.856;2023-01-01T04:43:28;11.20;99.90
6333;DHT22;3199;49.102;8.856;2023-01-01T04:45:58;11.20;99.90
6333;DHT22;3199;49.102;8.856;2023-01-01T04:48:24;11.20;99.90
6333;DHT22;3199;49.102;8.856;2023-01-01T04:50:58;11.20;99.90
6333;DHT22;3199;49.102;8.856;2023-01-01T04:53:25;11.20;99.90
6333;DHT22;3199;49.102;8.856;2023-01-01T04:55:52;11.10;99.90
6333;DHT22;3199;49.102;8.856;2023-01-01T04:58:18;11.10;99.90
6333;DHT22;3199;49.102;8.856;2023-01-01T05:00:47;11.10;99.90
6333;DHT22;3199;49.102;8.856;2023-01-01T05:03:14;11.10;99.90
6333;DHT22;3199;49.102;8.856;2023-01-01T05:05:39;11.10;99.90
6333;DHT22;3199;49.102;8.856;2023-01-01T05:08:05;11.10;99.90
6333;DHT22;3199;49.102;8.856;2023-01-01T05:10:30;11.10;99.90
6333;DHT22;3199;49.102;8.856;2023-01-01T05:12:56;11.00;99.90
6333;DHT22;3199;49.102;8.856;2023-01-01T05:15:21;11.00;99.90
6333;DHT22;3199;49.102;8.856;2023-01-01T05:17:47;11.00;99.90
6333;DHT22;3199;49.102;8.856;2023-01-01T05:20:12;11.00;99.90
6333;DHT22;3199;49.102;8.856;2023-01-01T05:22:38;11.00;99.90
6333;DHT22;3199;49.102;8.856;2023-01-01T05:25:04;11.00;99.90
6333;DHT22;3199;49.102;8.856;2023-01-01T05:27:29;11.00;99.90
6333;DHT22;3199;49.102;8.856;2023-01-01T05:29:55;11.00;99.90
6333;DHT22;3199;49.102;8.856;2023-01-01T05:32:20;11.00;99.90
6333;DHT22;3199;49.102;8.856;2023-01-01T05:34:46;11.00;99.90
6333;DHT22;3199;49.102;8.856;2023-01-01T05:37:12;11.10;99.90
6333;DHT22;3199;49.102;8.856;2023-01-01T05:39:37;11.10;99.90
6333;DHT22;3199;49.102;8.856;2023-01-01T05:42:03;11.10;99.90
6333;DHT22;3199;49.102;8.856;2023-01-01T05:44:28;11.20;99.90
6333;DHT22;3199;49.102;8.856;2023-01-01T05:46:54;11.20;99.90
6333;DHT22;3199;49.102;8.856;2023-01-01T05:49:19;11.30;99.90
6333;DHT22;3199;49.102;8.856;2023-01-01T05:51:45;11.40;99.90
6333;DHT22;3199;49.102;8.856;2023-01-01T05:54:10;11.50;99.90
6333;DHT22;3199;49.102;8.856;2023-01-01T05:56:36;11.60;99.90
6333;DHT22;3199;49.102;8.856;2023-01-01T05:59:01;11.60;99.90
6333;DHT22;3199;49.102;8.856;2023-01-01T06:01:29;11.70;99.90
6333;DHT22;3199;49.102;8.856;2023-01-01T06:03:56;11.70;99.90
6333;DHT22;3199;49.102;8.856;2023-01-01T06:06:24;11.70;99.90
6333;DHT22;3199;49.102;8.856;2023-01-01T06:11:16;11.80;99.90
6333;DHT22;3199;49.102;8.856;2023-01-01T06:13:42;11.90;99.90
6333;DHT22;3199;49.102;8.856;2023-01-01T06:16:08;11.90;99.90
6333;DHT22;3199;49.102;8.856;2023-01-01T06:18:34;12.00;99.90
6333;DHT22;3199;49.102;8.856;2023-01-01T06:21:12;12.00;99.90
6333;DHT22;3199;49.102;8.856;2023-01-01T06:23:38;12.10;99.90
6333;DHT22;3199;49.102;8.856;2023-01-01T06:26:09;12.20;99.90
6333;DHT22;3199;49.102;8.856;2023-01-01T06:28:35;12.20;99.90
6333;DHT22;3199;49.102;8.856;2023-01-01T06:31:02;12.30;99.90
6333;DHT22;3199;49.102;8.856;2023-01-01T06:33:29;12.30;99.90
6333;DHT22;3199;49.102;8.856;2023-01-01T06:35:55;12.40;99.90
6333;DHT22;3199;49.102;8.856;2023-01-01T06:38:21;12.40;99.90
6333;DHT22;3199;49.102;8.856;2023-01-01T06:41:03;12.50;99.90
6333;DHT22;3199;49.102;8.856;2023-01-01T06:43:30;12.50;99.90
6333;DHT22;3199;49.102;8.856;2023-01-01T06:46:07;12.50;99.90
6333;DHT22;3199;49.102;8.856;2023-01-01T06:48:36;12.50;99.90
6333;DHT22;3199;49.102;8.856;2023-01-01T06:51:22;12.50;99.90
6333;DHT22;3199;49.102;8.856;2023-01-01T06:53:49;12.40;99.90
6333;DHT22;3199;49.102;8.856;2023-01-01T06:56:15;12.40;99.90
6333;DHT22;3199;49.102;8.856;2023-01-01T06:58:40;12.40;99.90
6333;DHT22;3199;49.102;8.856;2023-01-01T07:01:09;12.50;99.90
6333;DHT22;3199;49.102;8.856;2023-01-01T07:03:35;12.50;99.90
6333;DHT22;3199;49.102;8.856;2023-01-01T07:06:01;12.50;99.90
6333;DHT22;3199;49.102;8.856;2023-01-01T07:08:27;12.50;99.90
6333;DHT22;3199;49.102;8.856;2023-01-01T07:10:52;12.50;99.90
6333;DHT22;3199;49.102;8.856;2023-01-01T07:13:21;12.50;99.90
6333;DHT22;3199;49.102;8.856;2023-01-01T07:15:47;12.50;99.90
6333;DHT22;3199;49.102;8.856;2023-01-01T07:18:12;12.50;99.90
6333;DHT22;3199;49.102;8.856;2023-01-01T07:20:38;12.40;99.90
6333;DHT22;3199;49.102;8.856;2023-01-01T07:23:03;12.40;99.90
6333;DHT22;3199;49.102;8.856;2023-01-01T07:25:29;12.30;99.90
6333;DHT22;3199;49.102;8.856;2023-01-01T07:27:55;12.30;99.90
6333;DHT22;3199;49.102;8.856;2023-01-01T07:30:20;12.20;99.90
6333;DHT22;3199;49.102;8.856;2023-01-01T07:32:46;12.20;99.90
6333;DHT22;3199;49.102;8.856;2023-01-01T07:35:11;12.10;99.90
6333;DHT22;3199;49.102;8.856;2023-01-01T07:37:37;12.10;99.90
6333;DHT22;3199;49.102;8.856;2023-01-01T07:40:02;12.10;99.90
6333;DHT22;3199;49.102;8.856;2023-01-01T07:42:28;12.10;99.90
6333;DHT22;3199;49.102;8.856;2023-01-01T07:44:54;12.10;99.90
6333;DHT22;3199;49.102;8.856;2023-01-01T07:47:22;12.10;99.90
6333;DHT22;3199;49.102;8.856;2023-01-01T07:49:48;12.10;99.90
6333;DHT22;3199;49.102;8.856;2023-01-01T07:52:14;12.10;99.90
6333;DHT22;3199;49.102;8.856;2023-01-01T07:54:39;12.10;99.90
6333;DHT22;3199;49.102;8.856;2023-01-01T07:57:05;12.10;99.90
6333;DHT22;3199;49.102;8.856;2023-01-01T07:59:31;12.10;99.90
6333;DHT22;3199;49.102;8.856;2023-01-01T08:01:57;12.10;99.90
6333;DHT22;3199;49.102;8.856;2023-01-01T08:04:23;12.10;99.90
6333;DHT22;3199;49.102;8.856;2023-01-01T08:06:48;12.10;99.90
6333;DHT22;3199;49.102;8.856;2023-01-01T08:09:14;12.10;99.90
6333;DHT22;3199;49.102;8.856;2023-01-01T08:11:39;12.10;99.90
6333;DHT22;3199;49.102;8.856;2023-01-01T08:14:05;12.10;99.90
6333;DHT22;3199;49.102;8.856;2023-01-01T08:16:30;12.10;99.90
6333;DHT22;3199;49.102;8.856;2023-01-01T08:18:56;12.00;99.90
6333;DHT22;3199;49.102;8.856;2023-01-01T08:21:21;11.90;99.90
6333;DHT22;3199;49.102;8.856;2023-01-01T08:23:47;11.90;99.90
6333;DHT22;3199;49.102;8.856;2023-01-01T08:26:14;11.90;99.90
6333;DHT22;3199;49.102;8.856;2023-01-01T08:28:40;11.90;99.90
6333;DHT22;3199;49.102;8.856;2023-01-01T08:31:06;12.00;99.90
6333;DHT22;3199;49.102;8.856;2023-01-01T08:33:31;12.00;99.90
6333;DHT22;3199;49.102;8.856;2023-01-01T08:35:57;12.10;99.90
6333;DHT22;3199;49.102;8.856;2023-01-01T08:38:23;12.20;99.90
6333;DHT22;3199;49.102;8.856;2023-01-01T08:40:48;12.20;99.90
6333;DHT22;3199;49.102;8.856;2023-01-01T08:43:14;12.30;99.90
6333;DHT22;3199;49.102;8.856;2023-01-01T08:45:39;12.40;99.90
6333;DHT22;3199;49.102;8.856;2023-01-01T08:48:05;12.40;99.90
6333;DHT22;3199;49.102;8.856;2023-01-01T08:50:30;12.50;99.90
6333;DHT22;3199;49.102;8.856;2023-01-01T08:52:59;12.60;99.90
6333;DHT22;3199;49.102;8.856;2023-01-01T08:55:25;12.60;99.90
6333;DHT22;3199;49.102;8.856;2023-01-01T08:57:50;12.70;99.90
6333;DHT22;3199;49.102;8.856;2023-01-01T09:00:16;12.80;99.90
6333;DHT22;3199;49.102;8.856;2023-01-01T09:02:42;12.90;99.90
6333;DHT22;3199;49.102;8.856;2023-01-01T09:05:08;13.00;99.90
6333;DHT22;3199;49.102;8.856;2023-01-01T09:07:34;13.00;99.90
6333;DHT22;3199;49.102;8.856;2023-01-01T09:10:00;13.10;99.90
6333;DHT22;3199;49.102;8.856;2023-01-01T09:12:25;13.20;99.90
6333;DHT22;3199;49.102;8.856;2023-01-01T09:14:51;13.30;99.90
6333;DHT22;3199;49.102;8.856;2023-01-01T09:17:17;13.30;99.90
6333;DHT22;3199;49.102;8.856;2023-01-01T09:19:42;13.40;99.90
6333;DHT22;3199;49.102;8.856;2023-01-01T09:22:09;13.40;99.90
6333;DHT22;3199;49.102;8.856;2023-01-01T09:24:35;13.50;99.90
6333;DHT22;3199;49.102;8.856;2023-01-01T09:27:01;13.60;99.90
6333;DHT22;3199;49.102;8.856;2023-01-01T09:29:26;13.70;99.90
6333;DHT22;3199;49.102;8.856;2023-01-01T09:31:52;13.80;99.90
6333;DHT22;3199;49.102;8.856;2023-01-01T09:34:17;13.90;99.90
6333;DHT22;3199;49.102;8.856;2023-01-01T09:36:43;14.10;99.90
6333;DHT22;3199;49.102;8.856;2023-01-01T09:39:14;14.20;99.90
6333;DHT22;3199;49.102;8.856;2023-01-01T09:46:59;14.70;99.90
6333;DHT22;3199;49.102;8.856;2023-01-01T09:52:01;15.20;99.90
6333;DHT22;3199;49.102;8.856;2023-01-01T09:54:33;15.30;99.90
6333;DHT22;3199;49.102;8.856;2023-01-01T09:57:04;15.40;99.90
6333;DHT22;3199;49.102;8.856;2023-01-01T09:59:31;15.40;99.90
6333;DHT22;3199;49.102;8.856;2023-01-01T10:02:16;15.50;99.90
6333;DHT22;3199;49.102;8.856;2023-01-01T10:04:58;15.60;99.90
6333;DHT22;3199;49.102;8.856;2023-01-01T10:10:35;15.70;99.90
6333;DHT22;3199;49.102;8.856;2023-01-01T10:16:02;15.80;99.90
6333;DHT22;3199;49.102;8.856;2023-01-01T10:18:32;15.90;99.90
6333;DHT22;3199;49.102;8.856;2023-01-01T10:21:06;16.10;99.90
6333;DHT22;3199;49.102;8.856;2023-01-01T10:23:40;16.20;99.90
6333;DHT22;3199;49.102;8.856;2023-01-01T10:26:12;16.30;99.70
6333;DHT22;3199;49.102;8.856;2023-01-01T10:28:52;16.40;99.70
6333;DHT22;3199;49.102;8.856;2023-01-01T10:31:32;16.40;99.50
6333;DHT22;3199;49.102;8.856;2023-01-01T10:34:19;16.40;98.60
6333;DHT22;3199;49.102;8.856;2023-01-01T10:36:46;16.40;98.30
6333;DHT22;3199;49.102;8.856;2023-01-01T10:39:14;16.40;98.20
6333;DHT22;3199;49.102;8.856;2023-01-01T10:41:40;16.50;97.40
6333;DHT22;3199;49.102;8.856;2023-01-01T10:44:06;16.50;97.30
6333;DHT22;3199;49.102;8.856;2023-01-01T10:46:34;16.50;97.50
6333;DHT22;3199;49.102;8.856;2023-01-01T10:49:07;16.60;97.50
6333;DHT22;3199;49.102;8.856;2023-01-01T10:51:40;16.60;97.60
6333;DHT22;3199;49.102;8.856;2023-01-01T10:54:39;16.70;97.40
6333;DHT22;3199;49.102;8.856;2023-01-01T10:59:53;17.00;97.00
6333;DHT22;3199;49.102;8.856;2023-01-01T11:04:47;17.10;96.40
6333;DHT22;3199;49.102;8.856;2023-01-01T11:09:54;17.20;95.70
6333;DHT22;3199;49.102;8.856;2023-01-01T11:12:24;17.20;95.20
6333;DHT22;3199;49.102;8.856;2023-01-01T11:14:56;17.30;94.70
6333;DHT22;3199;49.102;8.856;2023-01-01T11:17:25;17.30;94.40
6333;DHT22;3199;49.102;8.856;2023-01-01T11:19:52;17.40;93.60
6333;DHT22;3199;49.102;8.856;2023-01-01T11:25:38;17.50;93.20
6333;DHT22;3199;49.102;8.856;2023-01-01T11:28:33;17.50;93.10
6333;DHT22;3199;49.102;8.856;2023-01-01T11:31:20;17.60;93.00
6333;DHT22;3199;49.102;8.856;2023-01-01T11:33:50;17.60;93.00
6333;DHT22;3199;49.102;8.856;2023-01-01T11:36:35;17.60;92.70
6333;DHT22;3199;49.102;8.856;2023-01-01T11:39:13;17.70;92.80
6333;DHT22;3199;49.102;8.856;2023-01-01T11:41:44;17.70;92.10
6333;DHT22;3199;49.102;8.856;2023-01-01T11:44:11;17.80;92.30
6333;DHT22;3199;49.102;8.856;2023-01-01T11:46:38;18.00;91.70
6333;DHT22;3199;49.102;8.856;2023-01-01T11:49:13;18.10;91.50
6333;DHT22;3199;49.102;8.856;2023-01-01T11:51:39;18.30;90.70
6333;DHT22;3199;49.102;8.856;2023-01-01T11:56:55;18.50;90.30
6333;DHT22;3199;49.102;8.856;2023-01-01T11:59:28;18.60;89.80
6333;DHT22;3199;49.102;8.856;2023-01-01T12:02:01;18.70;89.60
6333;DHT22;3199;49.102;8.856;2023-01-01T12:04:54;18.80;89.60
6333;DHT22;3199;49.102;8.856;2023-01-01T12:07:24;18.80;88.20
6333;DHT22;3199;49.102;8.856;2023-01-01T12:10:04;18.90;87.70
6333;DHT22;3199;49.102;8.856;2023-01-01T12:12:37;18.90;88.20
6333;DHT22;3199;49.102;8.856;2023-01-01T12:15:14;18.90;86.60
6333;DHT22;3199;49.102;8.856;2023-01-01T12:17:47;19.00;87.10
6333;DHT22;3199;49.102;8.856;2023-01-01T12:22:59;19.00;84.90
6333;DHT22;3199;49.102;8.856;2023-01-01T12:25:31;19.00;85.20
6333;DHT22;3199;49.102;8.856;2023-01-01T12:31:20;18.80;85.30
6333;DHT22;3199;49.102;8.856;2023-01-01T12:36:49;18.80;84.50
6333;DHT22;3199;49.102;8.856;2023-01-01T12:42:44;18.70;82.80
6333;DHT22;3199;49.102;8.856;2023-01-01T12:51:19;18.70;83.00
6333;DHT22;3199;49.102;8.856;2023-01-01T12:56:44;18.60;82.80
6333;DHT22;3199;49.102;8.856;2023-01-01T12:59:18;18.60;82.70
6333;DHT22;3199;49.102;8.856;2023-01-01T13:01:47;18.60;81.80
6333;DHT22;3199;49.102;8.856;2023-01-01T13:04:16;18.50;82.30
6333;DHT22;3199;49.102;8.856;2023-01-01T13:06:50;18.60;82.10
6333;DHT22;3199;49.102;8.856;2023-01-01T13:09:21;18.50;80.90
6333;DHT22;3199;49.102;8.856;2023-01-01T13:12:03;18.40;80.90
6333;DHT22;3199;49.102;8.856;2023-01-01T13:14:30;18.40;80.70
6333;DHT22;3199;49.102;8.856;2023-01-01T13:17:01;18.40;81.40
6333;DHT22;3199;49.102;8.856;2023-01-01T13:19:31;18.40;81.20
6333;DHT22;3199;49.102;8.856;2023-01-01T13:21:58;18.30;81.80
6333;DHT22;3199;49.102;8.856;2023-01-01T13:24:25;18.30;81.80
6333;DHT22;3199;49.102;8.856;2023-01-01T13:26:51;18.30;81.40
6333;DHT22;3199;49.102;8.856;2023-01-01T13:34:34;18.30;81.60
6333;DHT22;3199;49.102;8.856;2023-01-01T13:40:00;18.30;80.20
6333;DHT22;3199;49.102;8.856;2023-01-01T13:45:25;18.30;80.10
6333;DHT22;3199;49.102;8.856;2023-01-01T13:48:02;18.20;80.20
6333;DHT22;3199;49.102;8.856;2023-01-01T13:59:25;18.10;80.10
6333;DHT22;3199;49.102;8.856;2023-01-01T14:02:16;18.00;80.00
6333;DHT22;3199;49.102;8.856;2023-01-01T14:04:47;18.00;80.20
6333;DHT22;3199;49.102;8.856;2023-01-01T14:10:31;17.90;80.70
6333;DHT22;3199;49.102;8.856;2023-01-01T14:13:13;17.90;80.60
6333;DHT22;3199;49.102;8.856;2023-01-01T14:16:01;17.90;81.40
6333;DHT22;3199;49.102;8.856;2023-01-01T14:18:48;17.90;81.80
6333;DHT22;3199;49.102;8.856;2023-01-01T14:21:28;17.90;82.80
6333;DHT22;3199;49.102;8.856;2023-01-01T14:24:02;17.90;82.80
6333;DHT22;3199;49.102;8.856;2023-01-01T14:26:30;17.90;83.30
6333;DHT22;3199;49.102;8.856;2023-01-01T14:28:59;17.80;84.40
6333;DHT22;3199;49.102;8.856;2023-01-01T14:31:29;17.70;84.60
6333;DHT22;3199;49.102;8.856;2023-01-01T14:33:55;17.70;85.20
6333;DHT22;3199;49.102;8.856;2023-01-01T14:36:24;17.60;85.40
6333;DHT22;3199;49.102;8.856;2023-01-01T14:38:52;17.60;85.20
6333;DHT22;3199;49.102;8.856;2023-01-01T14:41:34;17.50;85.40
6333;DHT22;3199;49.102;8.856;2023-01-01T14:44:13;17.60;85.70
6333;DHT22;3199;49.102;8.856;2023-01-01T14:46:41;17.50;87.90
6333;DHT22;3199;49.102;8.856;2023-01-01T14:49:09;17.40;89.10
6333;DHT22;3199;49.102;8.856;2023-01-01T14:51:36;17.40;89.60
6333;DHT22;3199;49.102;8.856;2023-01-01T14:54:03;17.30;90.00
6333;DHT22;3199;49.102;8.856;2023-01-01T14:56:34;17.20;90.30
6333;DHT22;3199;49.102;8.856;2023-01-01T14:59:09;17.10;90.70
6333;DHT22;3199;49.102;8.856;2023-01-01T15:01:36;17.00;91.00
6333;DHT22;3199;49.102;8.856;2023-01-01T15:04:12;17.00;91.30
6333;DHT22;3199;49.102;8.856;2023-01-01T15:06:40;17.00;91.40
6333;DHT22;3199;49.102;8.856;2023-01-01T15:09:06;16.90;91.60
6333;DHT22;3199;49.102;8.856;2023-01-01T15:11:31;16.90;91.70
6333;DHT22;3199;49.102;8.856;2023-01-01T15:14:00;16.80;91.90
6333;DHT22;3199;49.102;8.856;2023-01-01T15:16:27;16.70;92.40
6333;DHT22;3199;49.102;8.856;2023-01-01T15:18:54;16.60;92.70
6333;DHT22;3199;49.102;8.856;2023-01-01T15:21:35;16.50;93.00
6333;DHT22;3199;49.102;8.856;2023-01-01T15:29:14;16.10;94.10
6333;DHT22;3199;49.102;8.856;2023-01-01T15:31:47;16.00;94.70
6333;DHT22;3199;49.102;8.856;2023-01-01T15:34:35;15.90;94.90
6333;DHT22;3199;49.102;8.856;2023-01-01T15:37:17;15.80;95.20
6333;DHT22;3199;49.102;8.856;2023-01-01T15:39:50;15.60;95.70
6333;DHT22;3199;49.102;8.856;2023-01-01T15:42:32;15.50;96.10
6333;DHT22;3199;49.102;8.856;2023-01-01T15:45:16;15.40;96.60
6333;DHT22;3199;49.102;8.856;2023-01-01T15:47:43;15.30;97.10
6333;DHT22;3199;49.102;8.856;2023-01-01T15:52:50;15.10;98.00
6333;DHT22;3199;49.102;8.856;2023-01-01T15:55:17;15.00;98.60
6333;DHT22;3199;49.102;8.856;2023-01-01T15:57:46;14.90;99.10
6333;DHT22;3199;49.102;8.856;2023-01-01T16:00:20;14.80;99.80
6333;DHT22;3199;49.102;8.856;2023-01-01T16:02:48;14.60;99.90
6333;DHT22;3199;49.102;8.856;2023-01-01T16:05:19;14.60;99.90
6333;DHT22;3199;49.102;8.856;2023-01-01T16:07:45;14.50;99.90
6333;DHT22;3199;49.102;8.856;2023-01-01T16:10:14;14.40;99.90
6333;DHT22;3199;49.102;8.856;2023-01-01T16:12:40;14.30;99.90
6333;DHT22;3199;49.102;8.856;2023-01-01T16:15:06;14.20;99.90
6333;DHT22;3199;49.102;8.856;2023-01-01T16:17:33;14.10;99.90
6333;DHT22;3199;49.102;8.856;2023-01-01T16:19:58;14.00;99.90
6333;DHT22;3199;49.102;8.856;2023-01-01T16:22:25;13.90;99.90
6333;DHT22;3199;49.102;8.856;2023-01-01T16:24:50;13.80;99.90
6333;DHT22;3199;49.102;8.856;2023-01-01T16:27:16;13.70;99.90
6333;DHT22;3199;49.102;8.856;2023-01-01T16:29:41;13.60;99.90
6333;DHT22;3199;49.102;8.856;2023-01-01T16:32:16;13.60;99.90
6333;DHT22;3199;49.102;8.856;2023-01-01T16:34:42;13.50;99.90
6333;DHT22;3199;49.102;8.856;2023-01-01T16:37:07;13.40;99.90
6333;DHT22;3199;49.102;8.856;2023-01-01T16:39:33;13.30;99.90
6333;DHT22;3199;49.102;8.856;2023-01-01T16:41:58;13.30;99.90
6333;DHT22;3199;49.102;8.856;2023-01-01T16:44:24;13.20;99.90
6333;DHT22;3199;49.102;8.856;2023-01-01T16:46:50;13.10;99.90
6333;DHT22;3199;49.102;8.856;2023-01-01T16:49:15;13.00;99.90
6333;DHT22;3199;49.102;8.856;2023-01-01T16:51:41;13.00;99.90
6333;DHT22;3199;49.102;8.856;2023-01-01T16:54:06;12.90;99.90
6333;DHT22;3199;49.102;8.856;2023-01-01T16:56:32;12.90;99.90
6333;DHT22;3199;49.102;8.856;2023-01-01T16:58:57;12.80;99.90
6333;DHT22;3199;49.102;8.856;2023-01-01T17:01:24;12.70;99.90
6333;DHT22;3199;49.102;8.856;2023-01-01T17:03:50;12.70;99.90
6333;DHT22;3199;49.102;8.856;2023-01-01T17:06:16;12.70;99.90
6333;DHT22;3199;49.102;8.856;2023-01-01T17:08:42;12.70;99.90
6333;DHT22;3199;49.102;8.856;2023-01-01T17:11:13;12.70;99.90
6333;DHT22;3199;49.102;8.856;2023-01-01T17:13:40;12.70;99.90
6333;DHT22;3199;49.102;8.856;2023-01-01T17:16:06;12.70;99.90
6333;DHT22;3199;49.102;8.856;2023-01-01T17:18:32;12.70;99.90
6333;DHT22;3199;49.102;8.856;2023-01-01T17:21:02;12.70;99.90
6333;DHT22;3199;49.102;8.856;2023-01-01T17:23:28;12.70;99.90
6333;DHT22;3199;49.102;8.856;2023-01-01T17:25:54;12.70;99.90
6333;DHT22;3199;49.102;8.856;2023-01-01T17:28:19;12.70;99.90
6333;DHT22;3199;49.102;8.856;2023-01-01T17:30:45;12.70;99.90
6333;DHT22;3199;49.102;8.856;2023-01-01T17:33:10;12.70;99.90
6333;DHT22;3199;49.102;8.856;2023-01-01T17:35:36;12.70;99.90
6333;DHT22;3199;49.102;8.856;2023-01-01T17:38:02;12.60;99.90
6333;DHT22;3199;49.102;8.856;2023-01-01T17:40:28;12.60;99.90
6333;DHT22;3199;49.102;8.856;2023-01-01T17:42:53;12.50;99.90
6333;DHT22;3199;49.102;8.856;2023-01-01T17:45:19;12.50;99.90
6333;DHT22;3199;49.102;8.856;2023-01-01T17:47:45;12.50;99.90
6333;DHT22;3199;49.102;8.856;2023-01-01T17:50:11;12.50;99.90
6333;DHT22;3199;49.102;8.856;2023-01-01T17:52:36;12.50;99.90
6333;DHT22;3199;49.102;8.856;2023-01-01T17:55:02;12.50;99.90
6333;DHT22;3199;49.102;8.856;2023-01-01T17:57:27;12.40;99.90
6333;DHT22;3199;49.102;8.856;2023-01-01T17:59:53;12.40;99.90